sensor_id;sensor_type;location;lat;lon;timestamp;pressure;altitude;pressure_sealevel;temperature;humidity
64388;BME280;50709;52.648;4.764;2023-04-10T00:00:05;102102.47;;;12.87;59.20
64388;BME280;50709;52.648;4.764;2023-04-10T00:02:31;102104.94;;;12.73;59.41
64388;BME280;50709;52.648;4.764;2023-04-10T00:04:57;102069.88;;;12.66;58.16
64388;BME280;50709;52.648;4.764;2023-04-10T00:07:23;102089.88;;;12.58;58.26
64388;BME280;50709;52.648;4.764;2023-04-10T00:09:49;102087.19;;;12.55;59.41
64388;BME280;50709;52.648;4.764;2023-04-10T00:12:14;102060.94;;;12.52;57.40
64388;BME280;50709;52.648;4.764;2023-04-10T00:14:41;102075.25;;;12.75;59.25
64388;BME280;50709;52.648;4.764;2023-04-10T00:17:07;102078.88;;;12.87;58.34
64388;BME280;50709;52.648;4.764;2023-04-10T00:19:32;102053.34;;;12.72;58.65
64388;BME280;50709;52.648;4.764;2023-04-10T00:21:58;102066.53;;;12.78;58.78
64388;BME280;50709;52.648;4.764;2023-04-10T00:24:26;102078.63;;;12.67;57.38
64388;BME280;50709;52.648;4.764;2023-04-10T00:26:51;102061.81;;;12.51;56.91
64388;BME280;50709;52.648;4.764;2023-04-10T00:29:17;102063.13;;;12.85;58.75
64388;BME280;50709;52.648;4.764;2023-04-10T00:31:43;102058.00;;;12.94;60.00
64388;BME280;50709;52.648;4.764;2023-04-10T00:34:08;102062.09;;;12.72;57.80
64388;BME280;50709;52.648;4.764;2023-04-10T00:36:34;102044.66;;;12.74;59.56
64388;BME280;50709;52.648;4.764;2023-04-10T00:38:59;102058.34;;;12.53;58.36
64388;BME280;50709;52.648;4.764;2023-04-10T00:41:25;102060.63;;;12.96;58.93
64388;BME280;50709;52.648;4.764;2023-04-10T00:43:56;102071.94;;;12.92;57.40
64388;BME280;50709;52.648;4.764;2023-04-10T00:46:22;102062.09;;;12.72;58.47
64388;BME280;50709;52.648;4.764;2023-04-10T00:48:52;102068.38;;;12.85;57.77
64388;BME280;50709;52.648;4.764;2023-04-10T00:51:19;102065.06;;;13.02;59.46
64388;BME280;50709;52.648;4.764;2023-04-10T00:53:46;102044.00;;;12.95;59.45
64388;BME280;50709;52.648;4.764;2023-04-10T00:56:12;102042.25;;;12.93;58.02
64388;BME280;50709;52.648;4.764;2023-04-10T00:58:38;102050.28;;;13.07;58.76
64388;BME280;50709;52.648;4.764;2023-04-10T01:01:04;102046.47;;;12.82;58.18
64388;BME280;50709;52.648;4.764;2023-04-10T01:03:29;102023.44;;;12.54;56.29
64388;BME280;50709;52.648;4.764;2023-04-10T01:09:00;102025.09;;;13.23;58.81
64388;BME280;50709;52.648;4.764;2023-04-10T01:14:27;102011.81;;;13.07;59.68
64388;BME280;50709;52.648;4.764;2023-04-10T01:17:06;101998.56;;;12.95;59.79
64388;BME280;50709;52.648;4.764;2023-04-10T01:22:20;102005.94;;;12.55;57.76
64388;BME280;50709;52.648;4.764;2023-04-10T01:28:37;101997.00;;;12.39;57.52
64388;BME280;50709;52.648;4.764;2023-04-10T01:31:06;101993.47;;;12.34;58.52
64388;BME280;50709;52.648;4.764;2023-04-10T01:33:42;101985.03;;;11.93;58.38
64388;BME280;50709;52.648;4.764;2023-04-10T01:36:10;101989.97;;;12.33;59.45
64388;BME280;50709;52.648;4.764;2023-04-10T01:38:39;101978.44;;;12.19;58.06
64388;BME280;50709;52.648;4.764;2023-04-10T01:41:07;101972.94;;;12.02;60.47
64388;BME280;50709;52.648;4.764;2023-04-10T01:43:33;101976.16;;;11.84;58.18
64388;BME280;50709;52.648;4.764;2023-04-10T01:46:01;101981.63;;;11.99;58.88
64388;BME280;50709;52.648;4.764;2023-04-10T01:48:27;101974.47;;;12.52;58.48
64388;BME280;50709;52.648;4.764;2023-04-10T01:50:54;101972.41;;;12.26;57.91
64388;BME280;50709;52.648;4.764;2023-04-10T01:53:20;101978.13;;;12.65;59.25
64388;BME280;50709;52.648;4.764;2023-04-10T01:55:47;101963.03;;;12.43;58.87
64388;BME280;50709;52.648;4.764;2023-04-10T01:58:13;101953.97;;;12.20;58.61
64388;BME280;50709;52.648;4.764;2023-04-10T02:00:39;101964.94;;;12.57;60.18
64388;BME280;50709;52.648;4.764;2023-04-10T02:03:09;101966.44;;;12.36;58.63
64388;BME280;50709;52.648;4.764;2023-04-10T02:06:06;101965.41;;;12.25;59.76
64388;BME280;50709;52.648;4.764;2023-04-10T02:09:04;101965.47;;;11.71;59.37
64388;BME280;50709;52.648;4.764;2023-04-10T02:11:57;101978.56;;;11.71;59.44
64388;BME280;50709;52.648;4.764;2023-04-10T02:14:26;101949.19;;;11.89;61.97
64388;BME280;50709;52.648;4.764;2023-04-10T02:16:54;101976.19;;;11.87;61.09
64388;BME280;50709;52.648;4.764;2023-04-10T02:19:22;101967.03;;;11.57;59.18
64388;BME280;50709;52.648;4.764;2023-04-10T02:21:50;101948.53;;;12.01;61.13
64388;BME280;50709;52.648;4.764;2023-04-10T02:24:16;101953.44;;;11.83;60.46
64388;BME280;50709;52.648;4.764;2023-04-10T02:26:49;101959.03;;;12.04;61.47
64388;BME280;50709;52.648;4.764;2023-04-10T02:29:16;101954.28;;;11.80;61.09
64388;BME280;50709;52.648;4.764;2023-04-10T02:31:42;101963.97;;;11.32;59.60
64388;BME280;50709;52.648;4.764;2023-04-10T02:34:08;101962.25;;;11.88;61.11
64388;BME280;50709;52.648;4.764;2023-04-10T02:36:39;101956.38;;;12.01;61.15
64388;BME280;50709;52.648;4.764;2023-04-10T02:39:24;101970.94;;;11.84;60.13
64388;BME280;50709;52.648;4.764;2023-04-10T02:41:50;101953.69;;;11.98;59.70
64388;BME280;50709;52.648;4.764;2023-04-10T02:44:18;101959.97;;;12.09;61.35
64388;BME280;50709;52.648;4.764;2023-04-10T02:47:04;101964.28;;;12.06;61.18
64388;BME280;50709;52.648;4.764;2023-04-10T02:49:30;101949.47;;;12.08;61.30
64388;BME280;50709;52.648;4.764;2023-04-10T02:51:56;101961.06;;;12.25;61.00
64388;BME280;50709;52.648;4.764;2023-04-10T02:54:21;101954.44;;;11.91;58.49
64388;BME280;50709;52.648;4.764;2023-04-10T02:56:47;101959.72;;;11.94;60.89
64388;BME280;50709;52.648;4.764;2023-04-10T02:59:12;101948.72;;;12.17;61.39
64388;BME280;50709;52.648;4.764;2023-04-10T03:01:39;101956.09;;;11.84;60.91
64388;BME280;50709;52.648;4.764;2023-04-10T03:04:04;101947.78;;;12.13;60.93
64388;BME280;50709;52.648;4.764;2023-04-10T03:06:51;101917.97;;;12.00;61.61
64388;BME280;50709;52.648;4.764;2023-04-10T03:09:18;101941.34;;;11.91;60.82
64388;BME280;50709;52.648;4.764;2023-04-10T03:11:43;101946.75;;;12.00;61.30
64388;BME280;50709;52.648;4.764;2023-04-10T03:14:08;101933.94;;;12.20;61.46
64388;BME280;50709;52.648;4.764;2023-04-10T03:16:34;101942.50;;;12.08;60.89
64388;BME280;50709;52.648;4.764;2023-04-10T03:18:59;101933.66;;;11.99;59.82
64388;BME280;50709;52.648;4.764;2023-04-10T03:21:25;101928.47;;;11.47;59.42
64388;BME280;50709;52.648;4.764;2023-04-10T03:23:51;101928.72;;;11.62;61.87
64388;BME280;50709;52.648;4.764;2023-04-10T03:26:18;101927.47;;;11.95;61.99
64388;BME280;50709;52.648;4.764;2023-04-10T03:28:45;101919.25;;;11.69;62.16
64388;BME280;50709;52.648;4.764;2023-04-10T03:31:10;101919.91;;;11.55;62.15
64388;BME280;50709;52.648;4.764;2023-04-10T03:33:36;101916.16;;;11.38;61.71
64388;BME280;50709;52.648;4.764;2023-04-10T03:36:03;101914.69;;;11.55;61.96
64388;BME280;50709;52.648;4.764;2023-04-10T03:38:28;101923.09;;;11.37;62.96
64388;BME280;50709;52.648;4.764;2023-04-10T03:40:54;101909.94;;;11.31;61.11
64388;BME280;50709;52.648;4.764;2023-04-10T03:43:19;101899.81;;;11.53;62.94
64388;BME280;50709;52.648;4.764;2023-04-10T03:45:45;101908.47;;;11.49;62.80
64388;BME280;50709;52.648;4.764;2023-04-10T03:48:11;101885.63;;;11.38;63.01
64388;BME280;50709;52.648;4.764;2023-04-10T03:50:36;101897.22;;;11.56;62.03
64388;BME280;50709;52.648;4.764;2023-04-10T03:53:02;101888.72;;;11.72;63.51
64388;BME280;50709;52.648;4.764;2023-04-10T03:55:27;101893.13;;;11.73;63.02
64388;BME280;50709;52.648;4.764;2023-04-10T03:58:13;101883.53;;;11.74;63.02
64388;BME280;50709;52.648;4.764;2023-04-10T04:00:38;101882.50;;;11.63;63.24
64388;BME280;50709;52.648;4.764;2023-04-10T04:03:04;101887.16;;;11.84;63.40
64388;BME280;50709;52.648;4.764;2023-04-10T04:05:30;101870.28;;;11.63;62.61
64388;BME280;50709;52.648;4.764;2023-04-10T04:07:56;101884.63;;;11.91;64.01
64388;BME280;50709;52.648;4.764;2023-04-10T04:10:21;101875.88;;;11.88;62.67
64388;BME280;50709;52.648;4.764;2023-04-10T04:12:48;101867.69;;;11.65;62.71
64388;BME280;50709;52.648;4.764;2023-04-10T04:15:13;101878.25;;;11.72;63.02
64388;BME280;50709;52.648;4.764;2023-04-10T04:17:40;101866.78;;;11.61;62.47
64388;BME280;50709;52.648;4.764;2023-04-10T04:20:09;101874.16;;;11.93;63.24
64388;BME280;50709;52.648;4.764;2023-04-10T04:22:34;101869.69;;;11.81;61.82
64388;BME280;50709;52.648;4.764;2023-04-10T04:25:01;101857.34;;;11.72;62.41
64388;BME280;50709;52.648;4.764;2023-04-10T04:27:27;101858.09;;;11.62;61.60
64388;BME280;50709;52.648;4.764;2023-04-10T04:29:53;101856.63;;;11.86;61.77
64388;BME280;50709;52.648;4.764;2023-04-10T04:32:19;101862.28;;;12.15;61.38
64388;BME280;50709;52.648;4.764;2023-04-10T04:34:44;101856.81;;;11.97;61.96
64388;BME280;50709;52.648;4.764;2023-04-10T04:37:12;101853.00;;;11.74;61.42
64388;BME280;50709;52.648;4.764;2023-04-10T04:39:37;101871.09;;;12.22;61.69
64388;BME280;50709;52.648;4.764;2023-04-10T04:42:03;101855.84;;;11.93;61.35
64388;BME280;50709;52.648;4.764;2023-04-10T04:44:28;101856.72;;;11.92;60.88
64388;BME280;50709;52.648;4.764;2023-04-10T04:46:54;101841.59;;;11.69;60.11
64388;BME280;50709;52.648;4.764;2023-04-10T04:49:19;101861.84;;;11.83;61.52
64388;BME280;50709;52.648;4.764;2023-04-10T04:51:44;101848.16;;;12.02;62.36
64388;BME280;50709;52.648;4.764;2023-04-10T04:54:10;101839.41;;;11.99;61.20
64388;BME280;50709;52.648;4.764;2023-04-10T04:56:35;101846.94;;;11.77;59.83
64388;BME280;50709;52.648;4.764;2023-04-10T04:59:02;101845.59;;;12.05;60.63
64388;BME280;50709;52.648;4.764;2023-04-10T05:01:29;101845.34;;;11.90;59.67
64388;BME280;50709;52.648;4.764;2023-04-10T05:03:55;101825.41;;;12.00;60.75
64388;BME280;50709;52.648;4.764;2023-04-10T05:06:20;101840.06;;;11.85;60.87
64388;BME280;50709;52.648;4.764;2023-04-10T05:08:46;101831.34;;;11.86;61.67
64388;BME280;50709;52.648;4.764;2023-04-10T05:11:11;101833.31;;;12.01;61.04
64388;BME280;50709;52.648;4.764;2023-04-10T05:13:37;101838.75;;;12.18;61.51
64388;BME280;50709;52.648;4.764;2023-04-10T05:16:02;101827.16;;;11.96;59.78
64388;BME280;50709;52.648;4.764;2023-04-10T05:18:28;101827.31;;;12.11;59.66
64388;BME280;50709;52.648;4.764;2023-04-10T05:20:55;101826.34;;;12.03;60.93
64388;BME280;50709;52.648;4.764;2023-04-10T05:23:20;101831.47;;;11.95;60.82
64388;BME280;50709;52.648;4.764;2023-04-10T05:25:46;101822.72;;;11.93;60.71
64388;BME280;50709;52.648;4.764;2023-04-10T05:28:16;101796.66;;;12.01;61.93
64388;BME280;50709;52.648;4.764;2023-04-10T05:31:01;101830.84;;;12.12;62.99
64388;BME280;50709;52.648;4.764;2023-04-10T05:33:46;101823.97;;;12.26;61.30
64388;BME280;50709;52.648;4.764;2023-04-10T05:36:12;101826.72;;;12.39;62.25
64388;BME280;50709;52.648;4.764;2023-04-10T05:38:37;101821.44;;;12.33;62.05
64388;BME280;50709;52.648;4.764;2023-04-10T05:41:03;101816.28;;;12.40;60.80
64388;BME280;50709;52.648;4.764;2023-04-10T05:43:28;101824.19;;;12.43;60.19
64388;BME280;50709;52.648;4.764;2023-04-10T05:46:13;101800.97;;;12.85;60.84
64388;BME280;50709;52.648;4.764;2023-04-10T05:48:39;101819.13;;;12.65;60.51
64388;BME280;50709;52.648;4.764;2023-04-10T05:51:05;101827.75;;;12.55;57.81
64388;BME280;50709;52.648;4.764;2023-04-10T05:53:30;101825.56;;;13.01;59.13
64388;BME280;50709;52.648;4.764;2023-04-10T05:56:16;101819.22;;;12.76;57.80
64388;BME280;50709;52.648;4.764;2023-04-10T05:58:42;101825.03;;;12.42;58.58
64388;BME280;50709;52.648;4.764;2023-04-10T06:01:07;101818.38;;;12.78;60.90
64388;BME280;50709;52.648;4.764;2023-04-10T06:03:33;101820.19;;;12.89;58.03
64388;BME280;50709;52.648;4.764;2023-04-10T06:05:59;101805.00;;;12.49;58.37
64388;BME280;50709;52.648;4.764;2023-04-10T06:08:26;101781.78;;;12.91;57.96
64388;BME280;50709;52.648;4.764;2023-04-10T06:11:12;101790.50;;;12.90;62.20
64388;BME280;50709;52.648;4.764;2023-04-10T06:13:37;101789.56;;;12.78;58.53
64388;BME280;50709;52.648;4.764;2023-04-10T06:16:03;101796.13;;;13.36;58.38
64388;BME280;50709;52.648;4.764;2023-04-10T06:18:29;101796.81;;;13.18;57.33
64388;BME280;50709;52.648;4.764;2023-04-10T06:20:54;101788.09;;;13.22;59.34
64388;BME280;50709;52.648;4.764;2023-04-10T06:23:22;101786.44;;;13.35;58.28
64388;BME280;50709;52.648;4.764;2023-04-10T06:25:47;101767.16;;;13.27;59.15
64388;BME280;50709;52.648;4.764;2023-04-10T06:28:13;101764.63;;;13.41;59.07
64388;BME280;50709;52.648;4.764;2023-04-10T06:30:59;101757.41;;;13.04;56.67
64388;BME280;50709;52.648;4.764;2023-04-10T06:33:27;101755.94;;;13.50;57.96
64388;BME280;50709;52.648;4.764;2023-04-10T06:36:12;101752.22;;;13.10;55.73
64388;BME280;50709;52.648;4.764;2023-04-10T06:38:38;101739.19;;;13.30;56.05
64388;BME280;50709;52.648;4.764;2023-04-10T06:41:05;101713.78;;;13.26;56.23
64388;BME280;50709;52.648;4.764;2023-04-10T06:43:34;101730.44;;;13.27;58.37
64388;BME280;50709;52.648;4.764;2023-04-10T06:46:05;101741.97;;;13.61;54.90
64388;BME280;50709;52.648;4.764;2023-04-10T06:48:32;101739.94;;;13.09;54.40
64388;BME280;50709;52.648;4.764;2023-04-10T06:50:58;101721.66;;;13.28;56.79
64388;BME280;50709;52.648;4.764;2023-04-10T06:53:28;101689.31;;;13.29;57.22
64388;BME280;50709;52.648;4.764;2023-04-10T06:55:55;101721.59;;;13.16;55.25
64388;BME280;50709;52.648;4.764;2023-04-10T06:58:20;101709.16;;;12.81;56.31
64388;BME280;50709;52.648;4.764;2023-04-10T07:00:46;101720.63;;;12.95;56.75
64388;BME280;50709;52.648;4.764;2023-04-10T07:03:11;101714.59;;;13.11;58.64
64388;BME280;50709;52.648;4.764;2023-04-10T07:05:37;101715.53;;;13.21;57.42
64388;BME280;50709;52.648;4.764;2023-04-10T07:08:02;101713.78;;;13.25;58.14
64388;BME280;50709;52.648;4.764;2023-04-10T07:10:28;101716.94;;;12.65;56.39
64388;BME280;50709;52.648;4.764;2023-04-10T07:13:13;101713.78;;;13.19;59.06
64388;BME280;50709;52.648;4.764;2023-04-10T07:15:38;101716.41;;;13.23;58.20
64388;BME280;50709;52.648;4.764;2023-04-10T07:18:04;101705.97;;;13.34;55.64
64388;BME280;50709;52.648;4.764;2023-04-10T07:20:30;101693.66;;;13.18;55.21
64388;BME280;50709;52.648;4.764;2023-04-10T07:22:56;101703.19;;;13.06;56.04
64388;BME280;50709;52.648;4.764;2023-04-10T07:25:22;101697.34;;;13.60;56.46
64388;BME280;50709;52.648;4.764;2023-04-10T07:27:48;101701.69;;;13.52;56.41
64388;BME280;50709;52.648;4.764;2023-04-10T07:30:14;101696.56;;;13.79;55.88
64388;BME280;50709;52.648;4.764;2023-04-10T07:32:39;101691.03;;;13.21;55.95
64388;BME280;50709;52.648;4.764;2023-04-10T07:35:06;101687.84;;;14.04;56.21
64388;BME280;50709;52.648;4.764;2023-04-10T07:37:32;101687.78;;;13.77;56.22
64388;BME280;50709;52.648;4.764;2023-04-10T07:39:57;101672.84;;;13.56;55.38
64388;BME280;50709;52.648;4.764;2023-04-10T07:42:24;101681.56;;;13.51;56.40
64388;BME280;50709;52.648;4.764;2023-04-10T07:44:49;101672.06;;;13.84;53.16
64388;BME280;50709;52.648;4.764;2023-04-10T07:47:15;101660.69;;;14.23;53.59
64388;BME280;50709;52.648;4.764;2023-04-10T07:49:40;101671.00;;;13.34;54.61
64388;BME280;50709;52.648;4.764;2023-04-10T07:52:06;101654.56;;;14.35;55.55
64388;BME280;50709;52.648;4.764;2023-04-10T07:54:31;101672.00;;;13.65;54.38
64388;BME280;50709;52.648;4.764;2023-04-10T07:56:59;101646.63;;;13.76;54.36
64388;BME280;50709;52.648;4.764;2023-04-10T07:59:26;101605.53;;;13.80;54.89
64388;BME280;50709;52.648;4.764;2023-04-10T08:01:51;101664.13;;;13.62;52.81
64388;BME280;50709;52.648;4.764;2023-04-10T08:04:17;101643.16;;;14.22;53.76
64388;BME280;50709;52.648;4.764;2023-04-10T08:06:43;101637.00;;;13.60;53.19
64388;BME280;50709;52.648;4.764;2023-04-10T08:09:10;101637.06;;;14.31;53.72
64388;BME280;50709;52.648;4.764;2023-04-10T08:11:36;101617.69;;;13.41;54.09
64388;BME280;50709;52.648;4.764;2023-04-10T08:14:02;101619.53;;;13.77;53.28
64388;BME280;50709;52.648;4.764;2023-04-10T08:16:32;101633.56;;;14.00;53.47
64388;BME280;50709;52.648;4.764;2023-04-10T08:18:59;101628.28;;;14.35;53.75
64388;BME280;50709;52.648;4.764;2023-04-10T08:21:26;101625.66;;;14.06;54.72
64388;BME280;50709;52.648;4.764;2023-04-10T08:23:53;101614.31;;;14.05;52.66
64388;BME280;50709;52.648;4.764;2023-04-10T08:26:20;101610.78;;;13.99;52.72
64388;BME280;50709;52.648;4.764;2023-04-10T08:28:47;101605.53;;;14.31;53.96
64388;BME280;50709;52.648;4.764;2023-04-10T08:31:14;101595.81;;;14.81;53.87
64388;BME280;50709;52.648;4.764;2023-04-10T08:33:39;101590.66;;;13.82;50.51
64388;BME280;50709;52.648;4.764;2023-04-10T08:36:07;101588.91;;;13.89;51.59
64388;BME280;50709;52.648;4.764;2023-04-10T08:38:32;101601.13;;;14.38;52.34
64388;BME280;50709;52.648;4.764;2023-04-10T08:40:57;101602.88;;;14.51;54.14
64388;BME280;50709;52.648;4.764;2023-04-10T08:43:23;101594.16;;;14.06;51.13
64388;BME280;50709;52.648;4.764;2023-04-10T08:45:51;101589.75;;;14.31;53.26
64388;BME280;50709;52.648;4.764;2023-04-10T08:48:18;101579.25;;;14.23;53.04
64388;BME280;50709;52.648;4.764;2023-04-10T08:50:45;101563.53;;;13.91;52.38
64388;BME280;50709;52.648;4.764;2023-04-10T08:53:12;101553.88;;;14.02;52.66
64388;BME280;50709;52.648;4.764;2023-04-10T08:55:42;101568.75;;;13.85;52.57
64388;BME280;50709;52.648;4.764;2023-04-10T08:58:08;101550.34;;;14.25;53.19
64388;BME280;50709;52.648;4.764;2023-04-10T09:00:35;101546.03;;;13.84;52.19
64388;BME280;50709;52.648;4.764;2023-04-10T09:03:08;101546.00;;;13.65;52.10
64388;BME280;50709;52.648;4.764;2023-04-10T09:05:54;101549.38;;;14.72;52.64
64388;BME280;50709;52.648;4.764;2023-04-10T09:08:20;101532.00;;;13.91;50.46
64388;BME280;50709;52.648;4.764;2023-04-10T09:10:45;101545.97;;;14.36;52.55
64388;BME280;50709;52.648;4.764;2023-04-10T09:13:11;101542.50;;;14.03;52.47
64388;BME280;50709;52.648;4.764;2023-04-10T09:15:59;101547.69;;;14.36;51.05
64388;BME280;50709;52.648;4.764;2023-04-10T09:18:47;101544.13;;;14.69;53.14
64388;BME280;50709;52.648;4.764;2023-04-10T09:21:15;101539.78;;;14.45;51.04
64388;BME280;50709;52.648;4.764;2023-04-10T09:23:42;101545.91;;;14.58;51.01
64388;BME280;50709;52.648;4.764;2023-04-10T09:26:27;101493.31;;;14.70;50.61
64388;BME280;50709;52.648;4.764;2023-04-10T09:29:04;101529.91;;;15.13;51.07
64388;BME280;50709;52.648;4.764;2023-04-10T09:31:31;101533.59;;;14.77;48.90
64388;BME280;50709;52.648;4.764;2023-04-10T09:34:17;101515.91;;;15.07;51.79
64388;BME280;50709;52.648;4.764;2023-04-10T09:37:03;101497.47;;;15.10;50.82
64388;BME280;50709;52.648;4.764;2023-04-10T09:39:37;101492.38;;;14.82;51.22
64388;BME280;50709;52.648;4.764;2023-04-10T09:42:07;101502.09;;;14.54;49.16
64388;BME280;50709;52.648;4.764;2023-04-10T09:44:35;101479.03;;;15.14;49.57
64388;BME280;50709;52.648;4.764;2023-04-10T09:49:50;101491.50;;;14.85;49.25
64388;BME280;50709;52.648;4.764;2023-04-10T09:52:24;101456.53;;;14.53;50.01
64388;BME280;50709;52.648;4.764;2023-04-10T09:54:51;101456.47;;;14.75;50.23
64388;BME280;50709;52.648;4.764;2023-04-10T09:57:18;101461.75;;;14.66;48.79
64388;BME280;50709;52.648;4.764;2023-04-10T09:59:49;101450.28;;;14.85;51.33
64388;BME280;50709;52.648;4.764;2023-04-10T10:02:19;101451.91;;;15.03;49.84
64388;BME280;50709;52.648;4.764;2023-04-10T10:04:46;101443.38;;;14.69;49.95
64388;BME280;50709;52.648;4.764;2023-04-10T10:07:22;101452.16;;;14.63;50.46
64388;BME280;50709;52.648;4.764;2023-04-10T10:09:49;101445.13;;;14.65;48.95
64388;BME280;50709;52.648;4.764;2023-04-10T10:12:21;101424.06;;;14.71;48.33
64388;BME280;50709;52.648;4.764;2023-04-10T10:14:59;101438.75;;;15.03;49.71
64388;BME280;50709;52.648;4.764;2023-04-10T10:17:31;101419.34;;;15.23;50.16
64388;BME280;50709;52.648;4.764;2023-04-10T10:20:03;101419.38;;;15.15;50.43
64388;BME280;50709;52.648;4.764;2023-04-10T10:22:31;101410.69;;;15.05;51.87
64388;BME280;50709;52.648;4.764;2023-04-10T10:24:58;101413.38;;;14.96;51.93
64388;BME280;50709;52.648;4.764;2023-04-10T10:27:25;101397.72;;;14.82;50.84
64388;BME280;50709;52.648;4.764;2023-04-10T10:29:53;101411.69;;;14.89;52.15
64388;BME280;50709;52.648;4.764;2023-04-10T10:32:22;101402.56;;;15.36;51.09
64388;BME280;50709;52.648;4.764;2023-04-10T10:34:51;101413.34;;;15.02;49.85
64388;BME280;50709;52.648;4.764;2023-04-10T10:37:17;101406.84;;;15.46;51.57
64388;BME280;50709;52.648;4.764;2023-04-10T10:39:58;101409.06;;;15.93;50.94
64388;BME280;50709;52.648;4.764;2023-04-10T10:48:11;101378.47;;;15.75;50.90
64388;BME280;50709;52.648;4.764;2023-04-10T10:55:55;101359.53;;;16.18;49.04
64388;BME280;50709;52.648;4.764;2023-04-10T10:58:50;101346.13;;;16.37;48.66
64388;BME280;50709;52.648;4.764;2023-04-10T11:01:17;101335.97;;;16.71;47.27
64388;BME280;50709;52.648;4.764;2023-04-10T11:03:43;101331.63;;;16.69;48.15
64388;BME280;50709;52.648;4.764;2023-04-10T11:06:14;101323.34;;;16.33;47.97
64388;BME280;50709;52.648;4.764;2023-04-10T11:08:44;101314.78;;;16.17;47.88
64388;BME280;50709;52.648;4.764;2023-04-10T11:11:25;101303.44;;;16.13;47.84
64388;BME280;50709;52.648;4.764;2023-04-10T11:16:21;101306.13;;;16.68;48.14
64388;BME280;50709;52.648;4.764;2023-04-10T11:21:16;101295.78;;;16.55;48.60
64388;BME280;50709;52.648;4.764;2023-04-10T11:29:31;101286.41;;;16.36;48.02
64388;BME280;50709;52.648;4.764;2023-04-10T11:31:59;101267.94;;;16.37;47.68
64388;BME280;50709;52.648;4.764;2023-04-10T11:34:25;101259.25;;;16.29;47.49
64388;BME280;50709;52.648;4.764;2023-04-10T11:36:52;101247.63;;;16.42;48.26
64388;BME280;50709;52.648;4.764;2023-04-10T11:39:18;101253.16;;;16.27;47.76
64388;BME280;50709;52.648;4.764;2023-04-10T11:46:43;101225.50;;;16.53;48.32
64388;BME280;50709;52.648;4.764;2023-04-10T11:49:16;101209.19;;;16.29;48.06
64388;BME280;50709;52.648;4.764;2023-04-10T11:51:46;101216.28;;;16.25;48.02
64388;BME280;50709;52.648;4.764;2023-04-10T11:54:19;101213.78;;;16.16;47.75
64388;BME280;50709;52.648;4.764;2023-04-10T11:57:04;101225.25;;;16.13;49.56
64388;BME280;50709;52.648;4.764;2023-04-10T11:59:31;101201.34;;;16.24;49.19
64388;BME280;50709;52.648;4.764;2023-04-10T12:02:07;101214.75;;;16.10;49.39
64388;BME280;50709;52.648;4.764;2023-04-10T12:04:34;101198.06;;;16.64;49.74
64388;BME280;50709;52.648;4.764;2023-04-10T12:06:59;101192.63;;;16.22;49.99
64388;BME280;50709;52.648;4.764;2023-04-10T12:09:25;101194.81;;;15.92;49.55
64388;BME280;50709;52.648;4.764;2023-04-10T12:11:52;101197.50;;;15.89;50.50
64388;BME280;50709;52.648;4.764;2023-04-10T12:14:22;101171.22;;;15.85;50.62
64388;BME280;50709;52.648;4.764;2023-04-10T12:16:49;101179.00;;;15.94;50.00
64388;BME280;50709;52.648;4.764;2023-04-10T12:19:15;101171.91;;;15.97;50.77
64388;BME280;50709;52.648;4.764;2023-04-10T12:21:43;101168.25;;;16.08;50.97
64388;BME280;50709;52.648;4.764;2023-04-10T12:24:09;101176.53;;;16.39;50.28
64388;BME280;50709;52.648;4.764;2023-04-10T12:26:35;101166.31;;;16.19;50.12
64388;BME280;50709;52.648;4.764;2023-04-10T12:29:00;101162.59;;;16.31;51.22
64388;BME280;50709;52.648;4.764;2023-04-10T12:31:27;101171.53;;;16.21;49.77
64388;BME280;50709;52.648;4.764;2023-04-10T12:33:53;101174.59;;;16.49;49.96
64388;BME280;50709;52.648;4.764;2023-04-10T12:36:26;101164.00;;;16.52;51.07
64388;BME280;50709;52.648;4.764;2023-04-10T12:38:55;101152.16;;;16.25;51.29
64388;BME280;50709;52.648;4.764;2023-04-10T12:41:23;101145.50;;;16.55;51.16
64388;BME280;50709;52.648;4.764;2023-04-10T12:43:49;101112.34;;;16.42;51.37
64388;BME280;50709;52.648;4.764;2023-04-10T12:46:24;101138.19;;;16.21;52.18
64388;BME280;50709;52.648;4.764;2023-04-10T12:48:50;101145.38;;;16.10;52.44
64388;BME280;50709;52.648;4.764;2023-04-10T12:51:15;101144.41;;;16.67;53.33
64388;BME280;50709;52.648;4.764;2023-04-10T12:53:44;101140.00;;;16.68;54.14
64388;BME280;50709;52.648;4.764;2023-04-10T12:56:10;101139.16;;;16.14;54.71
64388;BME280;50709;52.648;4.764;2023-04-10T12:58:37;101141.78;;;16.16;54.75
64388;BME280;50709;52.648;4.764;2023-04-10T13:01:04;101134.44;;;16.35;54.96
64388;BME280;50709;52.648;4.764;2023-04-10T13:03:32;101128.03;;;15.95;55.08
64388;BME280;50709;52.648;4.764;2023-04-10T13:05:58;101118.00;;;16.19;55.84
64388;BME280;50709;52.648;4.764;2023-04-10T13:08:23;101124.72;;;16.37;56.13
64388;BME280;50709;52.648;4.764;2023-04-10T13:10:51;101107.94;;;15.89;57.01
64388;BME280;50709;52.648;4.764;2023-04-10T13:13:16;101114.91;;;15.93;57.90
64388;BME280;50709;52.648;4.764;2023-04-10T13:16:02;101112.84;;;16.11;57.92
64388;BME280;50709;52.648;4.764;2023-04-10T13:18:27;101090.22;;;15.99;58.00
64388;BME280;50709;52.648;4.764;2023-04-10T13:20:52;101093.47;;;15.57;60.32
64388;BME280;50709;52.648;4.764;2023-04-10T13:23:18;101075.41;;;15.31;59.67
64388;BME280;50709;52.648;4.764;2023-04-10T13:25:43;101037.38;;;14.91;62.08
64388;BME280;50709;52.648;4.764;2023-04-10T13:28:08;101039.50;;;15.28;60.97
64388;BME280;50709;52.648;4.764;2023-04-10T13:30:36;101037.69;;;15.32;61.93
64388;BME280;50709;52.648;4.764;2023-04-10T13:33:02;101011.72;;;15.09;61.05
64388;BME280;50709;52.648;4.764;2023-04-10T13:35:28;101032.28;;;15.40;60.84
64388;BME280;50709;52.648;4.764;2023-04-10T13:37:54;101029.03;;;15.85;60.59